sensor_id;sensor_type;location;lat;lon;timestamp;pressure;altitude;pressure_sealevel;temperature;humidity
32320;BME280;19080;51.750;5.888;2024-03-02T00:00:39;99661.00;;;8.17;100.00
32320;BME280;19080;51.750;5.888;2024-03-02T00:03:07;99630.09;;;8.02;100.00
32320;BME280;19080;51.750;5.888;2024-03-02T00:05:33;99654.75;;;8.01;100.00
32320;BME280;19080;51.750;5.888;2024-03-02T00:08:00;99629.97;;;7.86;100.00
32320;BME280;19080;51.750;5.888;2024-03-02T00:10:38;99630.88;;;7.88;100.00
32320;BME280;19080;51.750;5.888;2024-03-02T00:13:08;99633.53;;;7.89;100.00
32320;BME280;19080;51.750;5.888;2024-03-02T00:18:05;99645.06;;;8.02;100.00
32320;BME280;19080;51.750;5.888;2024-03-02T00:20:32;99623.88;;;7.93;100.00
32320;BME280;19080;51.750;5.888;2024-03-02T00:23:06;99638.03;;;8.04;100.00
32320;BME280;19080;51.750;5.888;2024-03-02T00:28:22;99652.19;;;8.15;100.00
32320;BME280;19080;51.750;5.888;2024-03-02T00:31:08;99635.38;;;8.05;100.00
32320;BME280;19080;51.750;5.888;2024-03-02T00:33:39;99623.97;;;8.08;100.00
32320;BME280;19080;51.750;5.888;2024-03-02T00:36:07;99656.66;;;8.25;100.00
32320;BME280;19080;51.750;5.888;2024-03-02T00:38:44;99654.03;;;8.31;100.00
32320;BME280;19080;51.750;5.888;2024-03-02T00:41:32;99659.41;;;8.43;100.00
32320;BME280;19080;51.750;5.888;2024-03-02T00:44:00;99656.78;;;8.48;100.00
32320;BME280;19080;51.750;5.888;2024-03-02T00:46:29;99640.00;;;8.35;100.00
32320;BME280;19080;51.750;5.888;2024-03-02T00:49:00;99664.72;;;8.50;100.00
32320;BME280;19080;51.750;5.888;2024-03-02T00:51:29;99655.00;;;8.39;100.00
32320;BME280;19080;51.750;5.888;2024-03-02T00:53:59;99654.13;;;8.43;100.00
32320;BME280;19080;51.750;5.888;2024-03-02T00:56:26;99681.50;;;8.55;100.00
32320;BME280;19080;51.750;5.888;2024-03-02T00:58:55;99680.63;;;8.56;100.00
32320;BME280;19080;51.750;5.888;2024-03-02T01:01:22;99673.59;;;8.58;100.00
32320;BME280;19080;51.750;5.888;2024-03-02T01:03:49;99687.69;;;8.61;100.00
32320;BME280;19080;51.750;5.888;2024-03-02T01:06:17;99712.44;;;8.77;100.00
32320;BME280;19080;51.750;5.888;2024-03-02T01:08:44;99719.47;;;8.72;100.00
32320;BME280;19080;51.750;5.888;2024-03-02T01:11:11;99758.31;;;8.85;100.00
32320;BME280;19080;51.750;5.888;2024-03-02T01:13:37;99754.84;;;8.95;100.00
32320;BME280;19080;51.750;5.888;2024-03-02T01:16:04;99755.78;;;9.12;100.00
32320;BME280;19080;51.750;5.888;2024-03-02T01:18:31;99763.78;;;9.25;100.00
32320;BME280;19080;51.750;5.888;2024-03-02T01:20:58;99757.59;;;9.23;100.00
32320;BME280;19080;51.750;5.888;2024-03-02T01:23:25;99744.34;;;9.20;100.00
32320;BME280;19080;51.750;5.888;2024-03-02T01:25:52;99741.69;;;9.21;100.00
32320;BME280;19080;51.750;5.888;2024-03-02T01:28:19;99752.31;;;9.27;100.00
32320;BME280;19080;51.750;5.888;2024-03-02T01:30:47;99767.34;;;9.33;100.00
32320;BME280;19080;51.750;5.888;2024-03-02T01:33:16;99747.00;;;9.20;100.00
32320;BME280;19080;51.750;5.888;2024-03-02T01:35:42;99753.19;;;9.26;100.00
32320;BME280;19080;51.750;5.888;2024-03-02T01:38:09;99768.22;;;9.35;100.00
32320;BME280;19080;51.750;5.888;2024-03-02T01:40:37;99756.72;;;9.27;100.00
32320;BME280;19080;51.750;5.888;2024-03-02T01:43:05;99754.06;;;9.21;100.00
32320;BME280;19080;51.750;5.888;2024-03-02T01:45:32;99767.31;;;9.27;100.00
32320;BME280;19080;51.750;5.888;2024-03-02T01:47:59;99754.06;;;9.22;100.00
32320;BME280;19080;51.750;5.888;2024-03-02T01:50:31;99746.09;;;9.13;100.00
32320;BME280;19080;51.750;5.888;2024-03-02T01:52:59;99763.75;;;9.22;100.00
32320;BME280;19080;51.750;5.888;2024-03-02T01:55:26;99739.91;;;9.14;100.00
32320;BME280;19080;51.750;5.888;2024-03-02T01:57:55;99724.00;;;9.06;100.00
32320;BME280;19080;51.750;5.888;2024-03-02T02:00:23;99732.81;;;8.99;100.00
32320;BME280;19080;51.750;5.888;2024-03-02T02:02:53;99733.66;;;8.95;100.00
32320;BME280;19080;51.750;5.888;2024-03-02T02:05:20;99751.38;;;9.08;100.00
32320;BME280;19080;51.750;5.888;2024-03-02T02:07:46;99746.06;;;9.05;100.00
32320;BME280;19080;51.750;5.888;2024-03-02T02:10:13;99725.75;;;9.00;100.00
32320;BME280;19080;51.750;5.888;2024-03-02T02:12:40;99723.06;;;8.92;100.00
32320;BME280;19080;51.750;5.888;2024-03-02T02:15:28;99739.00;;;9.04;100.00
32320;BME280;19080;51.750;5.888;2024-03-02T02:17:56;99713.38;;;8.96;100.00
32320;BME280;19080;51.750;5.888;2024-03-02T02:20:23;99690.38;;;8.76;100.00
32320;BME280;19080;51.750;5.888;2024-03-02T02:23:01;99721.31;;;8.91;100.00
32320;BME280;19080;51.750;5.888;2024-03-02T02:25:29;99721.31;;;8.91;100.00
32320;BME280;19080;51.750;5.888;2024-03-02T02:27:57;99709.78;;;8.75;100.00
32320;BME280;19080;51.750;5.888;2024-03-02T02:30:29;99726.53;;;8.79;100.00
32320;BME280;19080;51.750;5.888;2024-03-02T02:32:56;99750.41;;;8.88;100.00
32320;BME280;19080;51.750;5.888;2024-03-02T02:35:23;99722.13;;;8.73;100.00
32320;BME280;19080;51.750;5.888;2024-03-02T02:37:54;99727.41;;;8.73;100.00
32320;BME280;19080;51.750;5.888;2024-03-02T02:40:21;99738.94;;;8.86;100.00
32320;BME280;19080;51.750;5.888;2024-03-02T02:42:48;99740.69;;;8.84;100.00
32320;BME280;19080;51.750;5.888;2024-03-02T02:45:15;99746.84;;;8.83;100.00
32320;BME280;19080;51.750;5.888;2024-03-02T02:47:43;99732.69;;;8.63;100.00
32320;BME280;19080;51.750;5.888;2024-03-02T02:50:11;99719.44;;;8.63;100.00
32320;BME280;19080;51.750;5.888;2024-03-02T02:52:40;99733.56;;;8.65;100.00
32320;BME280;19080;51.750;5.888;2024-03-02T02:55:09;99710.56;;;8.48;100.00
32320;BME280;19080;51.750;5.888;2024-03-02T02:57:36;99733.53;;;8.56;100.00
32320;BME280;19080;51.750;5.888;2024-03-02T03:00:08;99719.34;;;8.44;100.00
32320;BME280;19080;51.750;5.888;2024-03-02T03:02:43;99702.59;;;8.39;100.00
32320;BME280;19080;51.750;5.888;2024-03-02T03:05:11;99714.94;;;8.42;100.00
32320;BME280;19080;51.750;5.888;2024-03-02T03:07:39;99701.69;;;8.39;100.00
32320;BME280;19080;51.750;5.888;2024-03-02T03:10:07;99725.56;;;8.50;100.00
32320;BME280;19080;51.750;5.888;2024-03-02T03:12:34;99729.94;;;8.46;100.00
32320;BME280;19080;51.750;5.888;2024-03-02T03:15:02;99736.13;;;8.48;100.00
32320;BME280;19080;51.750;5.888;2024-03-02T03:17:29;99713.06;;;8.30;100.00
32320;BME280;19080;51.750;5.888;2024-03-02T03:19:56;99757.22;;;8.37;100.00
32320;BME280;19080;51.750;5.888;2024-03-02T03:22:23;99753.59;;;8.31;100.00
32320;BME280;19080;51.750;5.888;2024-03-02T03:24:49;99702.28;;;8.00;100.00
32320;BME280;19080;51.750;5.888;2024-03-02T03:27:16;99756.25;;;8.29;100.00
32320;BME280;19080;51.750;5.888;2024-03-02T03:29:43;99736.78;;;8.21;100.00
32320;BME280;19080;51.750;5.888;2024-03-02T03:32:09;99755.31;;;8.23;100.00
32320;BME280;19080;51.750;5.888;2024-03-02T03:34:36;99752.66;;;8.21;100.00
32320;BME280;19080;51.750;5.888;2024-03-02T03:37:03;99742.00;;;8.10;100.00
32320;BME280;19080;51.750;5.888;2024-03-02T03:39:30;99777.34;;;8.23;100.00
32320;BME280;19080;51.750;5.888;2024-03-02T03:41:56;99758.78;;;8.17;100.00
32320;BME280;19080;51.750;5.888;2024-03-02T03:44:23;99772.94;;;8.22;100.00
32320;BME280;19080;51.750;5.888;2024-03-02T03:46:49;99763.16;;;8.12;100.00
32320;BME280;19080;51.750;5.888;2024-03-02T03:49:16;99758.75;;;8.11;100.00
32320;BME280;19080;51.750;5.888;2024-03-02T03:51:43;99747.25;;;8.04;100.00
32320;BME280;19080;51.750;5.888;2024-03-02T03:54:10;99742.78;;;7.96;100.00
32320;BME280;19080;51.750;5.888;2024-03-02T03:56:38;99757.75;;;7.97;100.00
32320;BME280;19080;51.750;5.888;2024-03-02T03:59:05;99764.81;;;7.98;100.00
32320;BME280;19080;51.750;5.888;2024-03-02T04:01:32;99797.44;;;8.04;100.00
32320;BME280;19080;51.750;5.888;2024-03-02T04:03:58;99791.19;;;7.95;100.00
32320;BME280;19080;51.750;5.888;2024-03-02T04:06:25;99793.06;;;8.08;100.00
32320;BME280;19080;51.750;5.888;2024-03-02T04:08:52;99771.81;;;7.93;100.00
32320;BME280;19080;51.750;5.888;2024-03-02T04:11:19;99764.78;;;7.95;100.00
32320;BME280;19080;51.750;5.888;2024-03-02T04:13:45;99741.81;;;7.88;100.00
32320;BME280;19080;51.750;5.888;2024-03-02T04:16:12;99751.59;;;7.96;100.00
32320;BME280;19080;51.750;5.888;2024-03-02T04:18:39;99740.03;;;7.83;100.00
32320;BME280;19080;51.750;5.888;2024-03-02T04:21:06;99744.44;;;7.84;100.00
32320;BME280;19080;51.750;5.888;2024-03-02T04:23:32;99745.31;;;7.83;100.00
32320;BME280;19080;51.750;5.888;2024-03-02T04:25:59;99775.31;;;7.92;100.00
32320;BME280;19080;51.750;5.888;2024-03-02T04:28:26;99763.00;;;7.91;100.00
32320;BME280;19080;51.750;5.888;2024-03-02T04:30:53;99757.63;;;7.81;100.00
32320;BME280;19080;51.750;5.888;2024-03-02T04:33:19;99758.53;;;7.83;100.00
32320;BME280;19080;51.750;5.888;2024-03-02T04:35:46;99761.13;;;7.80;100.00
32320;BME280;19080;51.750;5.888;2024-03-02T04:38:13;99777.94;;;7.90;100.00
32320;BME280;19080;51.750;5.888;2024-03-02T04:40:39;99761.09;;;7.77;100.00
32320;BME280;19080;51.750;5.888;2024-03-02T04:43:06;99754.03;;;7.73;100.00
32320;BME280;19080;51.750;5.888;2024-03-02T04:45:37;99761.00;;;7.67;100.00
32320;BME280;19080;51.750;5.888;2024-03-02T04:48:05;99781.28;;;7.71;100.00
32320;BME280;19080;51.750;5.888;2024-03-02T04:50:31;99778.53;;;7.57;100.00
32320;BME280;19080;51.750;5.888;2024-03-02T04:52:58;99770.41;;;7.39;100.00
32320;BME280;19080;51.750;5.888;2024-03-02T04:55:24;99773.91;;;7.36;100.00
32320;BME280;19080;51.750;5.888;2024-03-02T04:58:11;99796.00;;;7.46;100.00
32320;BME280;19080;51.750;5.888;2024-03-02T05:00:38;99799.47;;;7.42;100.00
32320;BME280;19080;51.750;5.888;2024-03-02T05:03:05;99786.97;;;7.26;100.00
32320;BME280;19080;51.750;5.888;2024-03-02T05:05:31;99773.69;;;7.18;100.00
32320;BME280;19080;51.750;5.888;2024-03-02T05:07:58;99777.22;;;7.18;100.00
32320;BME280;19080;51.750;5.888;2024-03-02T05:10:25;99804.66;;;7.33;100.00
32320;BME280;19080;51.750;5.888;2024-03-02T05:12:51;99761.34;;;7.14;100.00
32320;BME280;19080;51.750;5.888;2024-03-02T05:15:26;99803.00;;;7.41;100.00
32320;BME280;19080;51.750;5.888;2024-03-02T05:17:53;99818.81;;;7.41;100.00
32320;BME280;19080;51.750;5.888;2024-03-02T05:20:20;99805.53;;;7.33;100.00
32320;BME280;19080;51.750;5.888;2024-03-02T05:22:47;99801.97;;;7.28;100.00
32320;BME280;19080;51.750;5.888;2024-03-02T05:25:15;99799.22;;;7.21;100.00
32320;BME280;19080;51.750;5.888;2024-03-02T05:27:41;99806.34;;;7.28;100.00
32320;BME280;19080;51.750;5.888;2024-03-02T05:30:08;99791.28;;;7.19;100.00
32320;BME280;19080;51.750;5.888;2024-03-02T05:32:35;99811.63;;;7.28;100.00
32320;BME280;19080;51.750;5.888;2024-03-02T05:35:02;99806.44;;;7.34;100.00
32320;BME280;19080;51.750;5.888;2024-03-02T05:37:29;99811.69;;;7.34;100.00
32320;BME280;19080;51.750;5.888;2024-03-02T05:39:56;99812.53;;;7.30;100.00
32320;BME280;19080;51.750;5.888;2024-03-02T05:42:23;99818.75;;;7.35;100.00
32320;BME280;19080;51.750;5.888;2024-03-02T05:44:50;99828.44;;;7.34;100.00
32320;BME280;19080;51.750;5.888;2024-03-02T05:47:16;99792.16;;;7.16;100.00
32320;BME280;19080;51.750;5.888;2024-03-02T05:49:43;99797.47;;;7.19;100.00
32320;BME280;19080;51.750;5.888;2024-03-02T05:52:10;99811.69;;;7.34;100.00
32320;BME280;19080;51.750;5.888;2024-03-02T05:54:38;99814.34;;;7.34;100.00
32320;BME280;19080;51.750;5.888;2024-03-02T05:57:05;99801.00;;;7.22;100.00
32320;BME280;19080;51.750;5.888;2024-03-02T05:59:52;99819.56;;;7.28;100.00
32320;BME280;19080;51.750;5.888;2024-03-02T06:02:20;99818.59;;;7.23;100.00
32320;BME280;19080;51.750;5.888;2024-03-02T06:04:46;99804.41;;;7.11;100.00
32320;BME280;19080;51.750;5.888;2024-03-02T06:07:13;99806.00;;;7.00;100.00
32320;BME280;19080;51.750;5.888;2024-03-02T06:09:40;99789.19;;;6.89;100.00
32320;BME280;19080;51.750;5.888;2024-03-02T06:12:07;99835.13;;;7.08;100.00
32320;BME280;19080;51.750;5.888;2024-03-02T06:14:34;99837.63;;;6.97;100.00
32320;BME280;19080;51.750;5.888;2024-03-02T06:17:01;99849.03;;;6.95;100.00
32320;BME280;19080;51.750;5.888;2024-03-02T06:19:27;99844.47;;;6.80;100.00
32320;BME280;19080;51.750;5.888;2024-03-02T06:21:54;99828.34;;;6.59;100.00
32320;BME280;19080;51.750;5.888;2024-03-02T06:24:21;99847.66;;;6.59;100.00
32320;BME280;19080;51.750;5.888;2024-03-02T06:26:48;99860.72;;;6.50;100.00
32320;BME280;19080;51.750;5.888;2024-03-02T06:29:15;99862.34;;;6.42;100.00
32320;BME280;19080;51.750;5.888;2024-03-02T06:31:41;99843.63;;;6.25;100.00
32320;BME280;19080;51.750;5.888;2024-03-02T06:34:08;99846.22;;;6.24;100.00
32320;BME280;19080;51.750;5.888;2024-03-02T06:36:35;99850.50;;;6.17;100.00
32320;BME280;19080;51.750;5.888;2024-03-02T06:39:01;99846.03;;;6.11;100.00
32320;BME280;19080;51.750;5.888;2024-03-02T06:41:28;99874.28;;;6.20;100.00
32320;BME280;19080;51.750;5.888;2024-03-02T06:43:55;99877.91;;;6.28;100.00
32320;BME280;19080;51.750;5.888;2024-03-02T06:46:26;99886.75;;;6.32;100.00
32320;BME280;19080;51.750;5.888;2024-03-02T06:48:53;99885.88;;;6.31;100.00
32320;BME280;19080;51.750;5.888;2024-03-02T06:51:20;99854.06;;;6.19;100.00
32320;BME280;19080;51.750;5.888;2024-03-02T06:53:46;99854.22;;;6.28;100.00
32320;BME280;19080;51.750;5.888;2024-03-02T06:56:13;99874.69;;;6.44;100.00
32320;BME280;19080;51.750;5.888;2024-03-02T06:58:40;99887.03;;;6.48;100.00
32320;BME280;19080;51.750;5.888;2024-03-02T07:01:07;99874.78;;;6.50;100.00
32320;BME280;19080;51.750;5.888;2024-03-02T07:03:34;99869.41;;;6.44;100.00
32320;BME280;19080;51.750;5.888;2024-03-02T07:06:01;99886.41;;;6.65;100.00
32320;BME280;19080;51.750;5.888;2024-03-02T07:08:27;99884.75;;;6.70;100.00
32320;BME280;19080;51.750;5.888;2024-03-02T07:10:54;99878.53;;;6.66;100.00
32320;BME280;19080;51.750;5.888;2024-03-02T07:13:20;99874.19;;;6.68;100.00
32320;BME280;19080;51.750;5.888;2024-03-02T07:15:47;99894.94;;;7.07;100.00
32320;BME280;19080;51.750;5.888;2024-03-02T07:18:30;99891.19;;;8.38;100.00
32320;BME280;19080;51.750;5.888;2024-03-02T07:20:57;99885.81;;;9.92;100.00
32320;BME280;19080;51.750;5.888;2024-03-02T07:23:28;99879.53;;;11.47;100.00
32320;BME280;19080;51.750;5.888;2024-03-02T07:25:54;99895.78;;;12.45;100.00
32320;BME280;19080;51.750;5.888;2024-03-02T07:28:26;99885.06;;;12.54;100.00
32320;BME280;19080;51.750;5.888;2024-03-02T07:31:00;99902.69;;;12.70;100.00
32320;BME280;19080;51.750;5.888;2024-03-02T07:33:27;99900.84;;;12.80;100.00
32320;BME280;19080;51.750;5.888;2024-03-02T07:35:54;99884.59;;;13.06;100.00
32320;BME280;19080;51.750;5.888;2024-03-02T07:38:30;99888.44;;;13.61;100.00
32320;BME280;19080;51.750;5.888;2024-03-02T07:40:57;99903.91;;;14.61;88.70
32320;BME280;19080;51.750;5.888;2024-03-02T07:43:24;99871.91;;;15.53;81.72
32320;BME280;19080;51.750;5.888;2024-03-02T07:45:51;99885.75;;;15.74;73.45
32320;BME280;19080;51.750;5.888;2024-03-02T07:48:18;99875.91;;;15.76;72.73
32320;BME280;19080;51.750;5.888;2024-03-02T07:50:45;99897.97;;;15.44;72.49
32320;BME280;19080;51.750;5.888;2024-03-02T07:53:11;99902.00;;;15.65;71.16
32320;BME280;19080;51.750;5.888;2024-03-02T07:55:38;99899.22;;;16.11;68.88
32320;BME280;19080;51.750;5.888;2024-03-02T07:58:05;99879.31;;;16.22;64.45
32320;BME280;19080;51.750;5.888;2024-03-02T08:00:32;99902.97;;;16.02;66.46
32320;BME280;19080;51.750;5.888;2024-03-02T08:03:00;99876.13;;;16.05;64.31
32320;BME280;19080;51.750;5.888;2024-03-02T08:05:27;99889.03;;;16.65;62.12
32320;BME280;19080;51.750;5.888;2024-03-02T08:07:54;99886.72;;;16.11;62.66
32320;BME280;19080;51.750;5.888;2024-03-02T08:10:21;99911.22;;;16.32;61.87
32320;BME280;19080;51.750;5.888;2024-03-02T08:12:47;99900.06;;;16.88;60.38
32320;BME280;19080;51.750;5.888;2024-03-02T08:15:14;99879.16;;;15.90;60.80
32320;BME280;19080;51.750;5.888;2024-03-02T08:17:41;99901.34;;;15.53;63.37
32320;BME280;19080;51.750;5.888;2024-03-02T08:20:12;99883.78;;;15.39;63.22
32320;BME280;19080;51.750;5.888;2024-03-02T08:22:39;99896.81;;;14.58;65.94
32320;BME280;19080;51.750;5.888;2024-03-02T08:25:07;99912.16;;;15.00;67.25
32320;BME280;19080;51.750;5.888;2024-03-02T08:27:34;99901.34;;;14.55;66.10
32320;BME280;19080;51.750;5.888;2024-03-02T08:30:01;99897.94;;;14.97;65.70
32320;BME280;19080;51.750;5.888;2024-03-02T08:32:30;99897.94;;;15.45;63.33
32320;BME280;19080;51.750;5.888;2024-03-02T08:34:56;99903.81;;;16.43;61.37
32320;BME280;19080;51.750;5.888;2024-03-02T08:37:23;99917.81;;;16.92;58.34
32320;BME280;19080;51.750;5.888;2024-03-02T08:39:50;99906.25;;;17.55;56.61
32320;BME280;19080;51.750;5.888;2024-03-02T08:42:17;99908.34;;;18.36;54.00
32320;BME280;19080;51.750;5.888;2024-03-02T08:44:44;99921.03;;;16.71;56.08
32320;BME280;19080;51.750;5.888;2024-03-02T08:47:10;99907.63;;;18.31;53.69
32320;BME280;19080;51.750;5.888;2024-03-02T08:49:37;99892.66;;;18.50;50.89
32320;BME280;19080;51.750;5.888;2024-03-02T08:52:04;99911.59;;;18.17;51.59
32320;BME280;19080;51.750;5.888;2024-03-02T08:54:30;99886.25;;;17.98;51.49
32320;BME280;19080;51.750;5.888;2024-03-02T08:56:57;99901.56;;;18.24;51.10
32320;BME280;19080;51.750;5.888;2024-03-02T08:59:24;99908.72;;;17.32;52.27
32320;BME280;19080;51.750;5.888;2024-03-02T09:01:51;99920.28;;;17.65;52.67
32320;BME280;19080;51.750;5.888;2024-03-02T09:04:18;99920.06;;;17.74;51.50
32320;BME280;19080;51.750;5.888;2024-03-02T09:06:45;99914.41;;;17.83;50.92
32320;BME280;19080;51.750;5.888;2024-03-02T09:09:11;99917.94;;;17.22;52.31
32320;BME280;19080;51.750;5.888;2024-03-02T09:11:38;99910.13;;;17.45;52.10
32320;BME280;19080;51.750;5.888;2024-03-02T09:14:05;99921.66;;;18.11;51.24
32320;BME280;19080;51.750;5.888;2024-03-02T09:16:32;99911.97;;;18.35;50.21
32320;BME280;19080;51.750;5.888;2024-03-02T09:18:58;99918.03;;;18.12;51.04
32320;BME280;19080;51.750;5.888;2024-03-02T09:21:25;99930.91;;;18.30;50.20
32320;BME280;19080;51.750;5.888;2024-03-02T09:23:52;99903.72;;;17.82;50.03
32320;BME280;19080;51.750;5.888;2024-03-02T09:26:19;99907.38;;;17.47;50.24
32320;BME280;19080;51.750;5.888;2024-03-02T09:28:47;99933.22;;;17.51;51.21
32320;BME280;19080;51.750;5.888;2024-03-02T09:31:13;99918.44;;;17.69;50.39
32320;BME280;19080;51.750;5.888;2024-03-02T09:33:40;99919.94;;;16.80;51.99
32320;BME280;19080;51.750;5.888;2024-03-02T09:36:21;99929.06;;;16.71;51.78
32320;BME280;19080;51.750;5.888;2024-03-02T09:38:48;99920.94;;;17.42;52.17
32320;BME280;19080;51.750;5.888;2024-03-02T09:41:15;99901.69;;;17.90;51.46
32320;BME280;19080;51.750;5.888;2024-03-02T09:43:42;99914.81;;;17.70;50.37
32320;BME280;19080;51.750;5.888;2024-03-02T09:46:09;99897.66;;;17.43;49.67
32320;BME280;19080;51.750;5.888;2024-03-02T09:48:37;99898.00;;;17.94;50.05
32320;BME280;19080;51.750;5.888;2024-03-02T09:51:04;99904.84;;;18.04;49.29
32320;BME280;19080;51.750;5.888;2024-03-02T09:53:32;99886.69;;;17.83;48.91
32320;BME280;19080;51.750;5.888;2024-03-02T09:56:00;99911.59;;;17.88;49.40
32320;BME280;19080;51.750;5.888;2024-03-02T09:58:27;99900.69;;;18.79;47.91
32320;BME280;19080;51.750;5.888;2024-03-02T10:00:54;99911.50;;;19.54;45.85
32320;BME280;19080;51.750;5.888;2024-03-02T10:03:22;99890.28;;;20.17;44.24
32320;BME280;19080;51.750;5.888;2024-03-02T10:05:50;99883.81;;;19.01;45.34
32320;BME280;19080;51.750;5.888;2024-03-02T10:08:16;99896.22;;;19.05;46.46
32320;BME280;19080;51.750;5.888;2024-03-02T10:10:43;99905.59;;;19.18;45.05
32320;BME280;19080;51.750;5.888;2024-03-02T10:13:11;99934.50;;;18.87;45.16
32320;BME280;19080;51.750;5.888;2024-03-02T10:15:40;99897.56;;;18.65;45.14
32320;BME280;19080;51.750;5.888;2024-03-02T10:18:11;99925.47;;;19.14;44.98
32320;BME280;19080;51.750;5.888;2024-03-02T10:20:39;99885.47;;;19.55;43.52
32320;BME280;19080;51.750;5.888;2024-03-02T10:23:13;99896.53;;;19.45;44.19
32320;BME280;19080;51.750;5.888;2024-03-02T10:25:41;99909.06;;;19.46;44.36
32320;BME280;19080;51.750;5.888;2024-03-02T10:28:20;99886.22;;;19.83;43.71
32320;BME280;19080;51.750;5.888;2024-03-02T10:30:47;99894.47;;;19.78;42.89
32320;BME280;19080;51.750;5.888;2024-03-02T10:33:17;99898.31;;;19.95;42.83
32320;BME280;19080;51.750;5.888;2024-03-02T10:35:44;99903.19;;;20.08;43.52
32320;BME280;19080;51.750;5.888;2024-03-02T10:38:11;99894.56;;;20.67;42.54
32320;BME280;19080;51.750;5.888;2024-03-02T10:40:38;99894.69;;;20.85;42.76
32320;BME280;19080;51.750;5.888;2024-03-02T10:43:04;99868.03;;;21.19;40.61
32320;BME280;19080;51.750;5.888;2024-03-02T10:45:32;99871.75;;;20.31;41.66
32320;BME280;19080;51.750;5.888;2024-03-02T10:48:01;99864.25;;;19.45;43.24
32320;BME280;19080;51.750;5.888;2024-03-02T10:50:29;99875.53;;;19.57;44.02
32320;BME280;19080;51.750;5.888;2024-03-02T10:52:56;99870.69;;;19.90;42.04
32320;BME280;19080;51.750;5.888;2024-03-02T10:55:23;99872.81;;;19.07;43.51
32320;BME280;19080;51.750;5.888;2024-03-02T10:57:52;99872.97;;;18.77;44.02
32320;BME280;19080;51.750;5.888;2024-03-02T11:00:20;99883.84;;;19.24;44.21
32320;BME280;19080;51.750;5.888;2024-03-02T11:02:58;99880.69;;;19.86;44.40
32320;BME280;19080;51.750;5.888;2024-03-02T11:05:32;99878.22;;;19.57;43.52
32320;BME280;19080;51.750;5.888;2024-03-02T11:08:02;99881.44;;;19.41;42.43
32320;BME280;19080;51.750;5.888;2024-03-02T11:10:35;99870.91;;;19.10;42.77
32320;BME280;19080;51.750;5.888;2024-03-02T11:13:09;99865.25;;;19.68;40.83
32320;BME280;19080;51.750;5.888;2024-03-02T11:15:36;99858.22;;;19.64;41.77
32320;BME280;19080;51.750;5.888;2024-03-02T11:18:06;99859.44;;;20.47;41.16
32320;BME280;19080;51.750;5.888;2024-03-02T11:20:39;99869.25;;;20.26;40.33
32320;BME280;19080;51.750;5.888;2024-03-02T11:23:08;99866.56;;;20.26;40.46
32320;BME280;19080;51.750;5.888;2024-03-02T11:25:35;99874.31;;;20.12;40.03
32320;BME280;19080;51.750;5.888;2024-03-02T11:28:03;99877.31;;;20.04;41.31
32320;BME280;19080;51.750;5.888;2024-03-02T11:33:02;99870.28;;;18.77;43.03
32320;BME280;19080;51.750;5.888;2024-03-02T11:35:41;99871.91;;;18.55;41.90
32320;BME280;19080;51.750;5.888;2024-03-02T11:38:13;99857.31;;;18.64;41.96
32320;BME280;19080;51.750;5.888;2024-03-02T11:40:40;99851.66;;;18.98;42.97
32320;BME280;19080;51.750;5.888;2024-03-02T11:43:07;99863.16;;;19.51;41.45
32320;BME280;19080;51.750;5.888;2024-03-02T11:45:36;99860.84;;;19.40;41.56
32320;BME280;19080;51.750;5.888;2024-03-02T11:48:08;99848.56;;;18.83;41.44
32320;BME280;19080;51.750;5.888;2024-03-02T11:50:46;99858.28;;;18.61;42.72
32320;BME280;19080;51.750;5.888;2024-03-02T11:53:14;99848.25;;;18.38;42.74
32320;BME280;19080;51.750;5.888;2024-03-02T11:55:40;99831.66;;;18.26;43.42
32320;BME280;19080;51.750;5.888;2024-03-02T11:58:08;99831.50;;;18.02;42.73
32320;BME280;19080;51.750;5.888;2024-03-02T12:00:34;99847.63;;;18.02;43.50
32320;BME280;19080;51.750;5.888;2024-03-02T12:03:06;99840.53;;;18.00;43.41
32320;BME280;19080;51.750;5.888;2024-03-02T12:05:34;99818.94;;;17.75;44.31
32320;BME280;19080;51.750;5.888;2024-03-02T12:08:03;99834.31;;;17.70;43.64
32320;BME280;19080;51.750;5.888;2024-03-02T12:10:31;99810.59;;;17.84;43.21
32320;BME280;19080;51.750;5.888;2024-03-02T12:12:59;99816.91;;;18.39;42.88
32320;BME280;19080;51.750;5.888;2024-03-02T12:15:28;99824.41;;;18.82;42.20
32320;BME280;19080;51.750;5.888;2024-03-02T12:17:56;99818.59;;;19.42;41.77
32320;BME280;19080;51.750;5.888;2024-03-02T12:20:25;99831.81;;;18.75;41.80
32320;BME280;19080;51.750;5.888;2024-03-02T12:22:53;99797.16;;;18.13;42.48
32320;BME280;19080;51.750;5.888;2024-03-02T12:25:20;99831.06;;;18.44;44.67
32320;BME280;19080;51.750;5.888;2024-03-02T12:27:53;99799.47;;;18.24;43.16
32320;BME280;19080;51.750;5.888;2024-03-02T12:30:21;99823.41;;;18.32;43.73
32320;BME280;19080;51.750;5.888;2024-03-02T12:32:48;99820.06;;;18.51;43.31
32320;BME280;19080;51.750;5.888;2024-03-02T12:35:15;99804.09;;;18.47;42.78
32320;BME280;19080;51.750;5.888;2024-03-02T12:37:47;99816.84;;;18.40;42.55
32320;BME280;19080;51.750;5.888;2024-03-02T12:40:15;99797.00;;;17.90;43.19
32320;BME280;19080;51.750;5.888;2024-03-02T12:42:45;99798.00;;;17.27;43.75
32320;BME280;19080;51.750;5.888;2024-03-02T12:45:13;99795.13;;;17.02;44.49
32320;BME280;19080;51.750;5.888;2024-03-02T12:47:41;99772.63;;;17.37;44.92
32320;BME280;19080;51.750;5.888;2024-03-02T12:50:09;99789.69;;;17.66;45.04
32320;BME280;19080;51.750;5.888;2024-03-02T12:52:36;99790.78;;;17.88;44.86
32320;BME280;19080;51.750;5.888;2024-03-02T12:55:05;99780.34;;;17.79;43.96
32320;BME280;19080;51.750;5.888;2024-03-02T12:57:33;99759.44;;;17.31;44.48
32320;BME280;19080;51.750;5.888;2024-03-02T13:00:02;99750.22;;;17.10;45.01
32320;BME280;19080;51.750;5.888;2024-03-02T13:02:40;99755.63;;;17.09;45.79
32320;BME280;19080;51.750;5.888;2024-03-02T13:05:07;99759.19;;;17.39;46.58
32320;BME280;19080;51.750;5.888;2024-03-02T13:07:38;99770.06;;;17.64;46.89
32320;BME280;19080;51.750;5.888;2024-03-02T13:10:06;99752.84;;;17.41;45.86
32320;BME280;19080;51.750;5.888;2024-03-02T13:12:35;99747.59;;;17.09;47.01